Time;durP1;ratioP1;P1;durP2;ratioP2;P2;SDS_P1;SDS_P2;PMS_P1;PMS_P2;Temp;Humidity;BMP_temperature;BMP_pressure;BME280_temperature;BME280_humidity;BME280_pressure;Samples;Min_cycle;Max_cycle;Signal;HPM_P1;HPM_P2
2023/12/10 00:02:13;;;;;;;14.63;0.93;;;9.40;99.90;;;;;;5015057;28;20032;-76
2023/12/10 00:04:39;;;;;;;17.85;1.85;;;9.30;99.90;;;;;;5015159;28;20030;-76
2023/12/10 00:07:05;;;;;;;17.17;0.85;;;9.10;99.90;;;;;;5015937;28;20477;-75
2023/12/10 00:09:30;;;;;;;24.40;2.45;;;9.00;99.90;;;;;;5015311;28;20034;-75
2023/12/10 00:11:56;;;;;;;17.33;2.50;;;8.90;99.90;;;;;;5015213;28;20018;-75
2023/12/10 00:14:24;;;;;;;16.30;1.65;;;9.00;99.90;;;;;;5015478;28;20022;-75
2023/12/10 00:16:49;;;;;;;9.13;0.77;;;8.80;99.90;;;;;;5014295;28;20014;-75
2023/12/10 00:19:15;;;;;;;23.73;2.72;;;8.70;99.90;;;;;;5014162;28;20033;-75
2023/12/10 00:21:41;;;;;;;27.40;2.38;;;8.70;99.90;;;;;;5013877;28;20065;-75
2023/12/10 00:24:06;;;;;;;19.65;2.28;;;8.70;99.90;;;;;;5014025;28;20061;-76
2023/12/10 00:26:32;;;;;;;22.88;3.00;;;8.70;99.90;;;;;;5013493;28;20136;-75
2023/12/10 00:28:57;;;;;;;34.10;2.90;;;8.70;99.90;;;;;;5015012;28;20517;-76
2023/12/10 00:31:23;;;;;;;20.00;1.75;;;8.60;99.90;;;;;;5013750;28;20433;-76
2023/12/10 00:33:48;;;;;;;13.05;1.33;;;8.60;99.90;;;;;;5013550;28;20018;-75
2023/12/10 00:36:15;;;;;;;18.42;2.08;;;8.70;99.90;;;;;;5013205;28;20014;-75
2023/12/10 00:38:42;;;;;;;21.77;2.17;;;8.60;99.90;;;;;;5014710;28;20077;-76
2023/12/10 00:41:10;;;;;;;21.90;2.60;;;8.60;99.90;;;;;;5013486;28;20049;-75
2023/12/10 00:43:36;;;;;;;17.38;1.38;;;8.50;99.90;;;;;;5014762;28;20092;-75
2023/12/10 00:46:01;;;;;;;19.85;1.40;;;8.60;99.90;;;;;;5014558;28;20022;-75
2023/12/10 00:48:28;;;;;;;18.08;1.02;;;8.90;99.90;;;;;;5013243;28;20022;-76
2023/12/10 00:50:53;;;;;;;26.25;2.20;;;9.10;99.90;;;;;;5014520;28;20132;-75
2023/12/10 00:53:19;;;;;;;17.83;0.47;;;8.50;99.90;;;;;;5014525;28;20061;-76
2023/12/10 00:55:44;;;;;;;17.50;1.77;;;8.50;99.90;;;;;;5014406;28;20026;-75
2023/12/10 00:58:11;;;;;;;25.67;2.13;;;8.50;99.90;;;;;;5014536;28;20024;-76
2023/12/10 01:00:36;;;;;;;15.10;1.05;;;8.50;99.90;;;;;;5014997;28;20029;-75
2023/12/10 01:03:06;;;;;;;16.10;0.95;;;8.40;99.90;;;;;;5014619;28;20037;-75
2023/12/10 01:05:31;;;;;;;17.05;1.40;;;8.50;99.90;;;;;;5014455;28;20473;-76
2023/12/10 01:07:57;;;;;;;18.52;2.03;;;8.40;99.90;;;;;;5014339;28;20022;-76
2023/12/10 01:10:23;;;;;;;10.20;0.85;;;8.40;99.90;;;;;;5014367;28;20026;-76
2023/12/10 01:12:48;;;;;;;12.85;2.60;;;8.40;99.90;;;;;;5013254;28;20026;-75
2023/12/10 01:15:14;;;;;;;14.90;1.42;;;8.40;99.90;;;;;;5013148;28;20105;-75
2023/12/10 01:17:40;;;;;;;25.77;1.92;;;8.40;99.90;;;;;;5014023;28;20025;-75
2023/12/10 01:20:06;;;;;;;21.88;2.35;;;8.40;99.90;;;;;;5013854;28;20030;-75
2023/12/10 01:22:31;;;;;;;20.15;2.28;;;8.40;99.90;;;;;;5014019;28;20065;-75
2023/12/10 01:24:58;;;;;;;9.32;0.93;;;10.70;99.90;;;;;;5012738;28;20050;-76
2023/12/10 01:27:23;;;;;;;15.63;1.25;;;8.40;99.90;;;;;;5014740;28;20026;-75
2023/12/10 01:29:49;;;;;;;11.43;1.58;;;8.50;99.90;;;;;;5013644;28;20083;-76
2023/12/10 01:32:15;;;;;;;14.73;1.48;;;8.40;99.90;;;;;;5012691;28;20389;-75
2023/12/10 01:34:44;;;;;;;12.80;1.40;;;8.70;99.90;;;;;;5013870;28;20030;-75
2023/12/10 01:37:10;;;;;;;28.23;1.65;;;8.40;99.90;;;;;;5014093;28;20026;-75
2023/12/10 01:39:35;;;;;;;17.92;1.50;;;8.50;99.90;;;;;;5014325;28;20032;-75
2023/12/10 01:42:02;;;;;;;15.85;1.23;;;8.50;99.90;;;;;;5013229;28;20060;-75
2023/12/10 01:44:28;;;;;;;36.03;3.75;;;8.60;99.90;;;;;;5016634;28;20054;-76
2023/12/10 01:46:55;;;;;;;17.55;1.75;;;8.60;99.90;;;;;;5016440;28;20574;-75
2023/12/10 01:49:26;;;;;;;20.02;1.77;;;8.60;99.90;;;;;;5017597;28;20482;-75
2023/12/10 01:51:52;;;;;;;21.33;3.10;;;8.60;99.90;;;;;;5017714;28;20026;-75
2023/12/10 01:54:21;;;;;;;22.73;1.60;;;8.60;99.90;;;;;;5017973;28;20079;-75
2023/12/10 01:56:50;;;;;;;15.43;1.77;;;8.70;99.90;;;;;;5018141;28;20021;-75
2023/12/10 01:59:18;;;;;;;8.10;1.30;;;8.70;99.90;;;;;;5017696;28;20056;-75
2023/12/10 02:01:45;;;;;;;22.58;2.08;;;8.70;99.90;;;;;;5018062;28;20022;-76
2023/12/10 02:04:11;;;;;;;23.73;1.02;;;8.70;99.90;;;;;;5017688;28;20473;-75
2023/12/10 02:06:37;;;;;;;18.83;0.93;;;8.70;99.90;;;;;;5018255;28;20018;-74
2023/12/10 02:09:09;;;;;;;7.50;0.63;;;8.70;99.90;;;;;;5016098;28;20422;-73
2023/12/10 02:11:35;;;;;;;23.42;2.45;;;8.70;99.90;;;;;;5018198;28;20014;-75
2023/12/10 02:14:01;;;;;;;16.10;1.20;;;8.60;99.90;;;;;;5017442;28;20503;-75
2023/12/10 02:16:26;;;;;;;17.33;1.35;;;8.60;99.90;;;;;;5017229;28;20068;-73
2023/12/10 02:18:52;;;;;;;17.85;1.80;;;8.40;99.90;;;;;;5016361;28;20037;-74
2023/12/10 02:21:18;;;;;;;15.27;1.10;;;8.40;99.90;;;;;;5017683;28;20029;-73
2023/12/10 02:24:06;;;;;;;15.75;1.73;;;8.30;99.90;;;;;;5018174;28;20022;-73
2023/12/10 02:26:32;;;;;;;15.67;1.10;;;8.30;99.90;;;;;;5017427;28;20054;-74
2023/12/10 02:28:57;;;;;;;16.50;0.95;;;8.20;99.90;;;;;;5016393;28;20021;-74
2023/12/10 02:31:25;;;;;;;20.80;2.65;;;8.20;99.90;;;;;;5017477;28;20080;-74
2023/12/10 02:33:50;;;;;;;16.85;2.60;;;8.10;99.90;;;;;;5017501;28;20021;-74
2023/12/10 02:36:16;;;;;;;14.20;0.75;;;8.10;99.90;;;;;;5017565;28;20022;-74
2023/12/10 02:38:43;;;;;;;24.42;2.13;;;8.10;99.90;;;;;;5017520;28;20025;-74
2023/12/10 02:41:09;;;;;;;34.53;2.70;;;8.10;99.90;;;;;;5016896;28;20014;-74
2023/12/10 02:43:34;;;;;;;21.80;2.60;;;8.10;99.90;;;;;;5017151;28;20378;-74
2023/12/10 02:46:00;;;;;;;19.40;1.35;;;8.10;99.90;;;;;;5017469;28;20385;-74
2023/12/10 02:48:25;;;;;;;21.80;1.07;;;8.10;99.90;;;;;;5017096;28;20022;-74
2023/12/10 02:50:51;;;;;;;22.63;2.70;;;8.10;99.90;;;;;;5015560;28;20359;-74
2023/12/10 02:53:17;;;;;;;25.75;2.17;;;8.20;99.90;;;;;;5015422;28;20366;-74
2023/12/10 02:55:43;;;;;;;21.73;1.58;;;8.20;99.90;;;;;;5016563;28;20388;-74
2023/12/10 02:58:09;;;;;;;28.17;2.10;;;8.30;99.90;;;;;;5015485;28;20108;-74
2023/12/10 03:00:34;;;;;;;23.42;1.70;;;8.20;99.90;;;;;;5017023;28;20030;-74
2023/12/10 03:03:01;;;;;;;12.75;1.23;;;8.20;99.90;;;;;;5016928;28;20030;-74
2023/12/10 03:05:26;;;;;;;19.52;0.73;;;8.20;99.90;;;;;;5016581;28;20053;-75
2023/12/10 03:07:52;;;;;;;28.17;2.05;;;8.20;99.90;;;;;;5016453;28;20486;-74
2023/12/10 03:10:18;;;;;;;26.63;1.63;;;8.20;99.90;;;;;;5016248;28;20588;-74
2023/12/10 03:12:43;;;;;;;25.73;2.80;;;8.20;99.90;;;;;;5016522;28;20026;-74
2023/12/10 03:15:09;;;;;;;23.30;3.35;;;8.20;99.90;;;;;;5016910;28;20079;-74
2023/12/10 03:17:35;;;;;;;24.50;1.67;;;8.30;99.90;;;;;;5015531;28;20025;-74
2023/12/10 03:20:00;;;;;;;14.27;1.55;;;8.20;99.90;;;;;;5016233;28;20037;-74
2023/12/10 03:22:26;;;;;;;20.77;1.73;;;8.40;99.90;;;;;;5015112;28;20650;-74
2023/12/10 03:24:51;;;;;;;16.05;1.25;;;9.80;99.90;;;;;;5016041;28;20076;-74
2023/12/10 03:27:17;;;;;;;21.25;1.80;;;8.20;99.90;;;;;;5016384;28;20029;-74
2023/12/10 03:29:43;;;;;;;30.38;2.88;;;8.20;99.90;;;;;;5014930;28;20058;-74
2023/12/10 03:32:09;;;;;;;16.45;2.72;;;;;;;;;;5016035;28;20470;-74
2023/12/10 03:34:34;;;;;;;19.60;2.05;;;8.10;99.90;;;;;;5016227;28;20542;-74
2023/12/10 03:37:00;;;;;;;17.20;1.45;;;8.20;99.90;;;;;;5015136;28;20124;-74
2023/12/10 03:39:25;;;;;;;24.20;1.27;;;8.20;99.90;;;;;;5016520;28;20077;-74
2023/12/10 03:41:52;;;;;;;15.77;1.48;;;8.20;99.90;;;;;;5015038;28;20393;-74
2023/12/10 03:44:17;;;;;;;32.72;1.50;;;8.20;99.90;;;;;;5014881;28;20125;-74
2023/12/10 03:46:43;;;;;;;17.33;1.00;;;8.20;99.90;;;;;;5016154;28;20441;-74
2023/12/10 03:49:08;;;;;;;19.75;2.53;;;8.20;99.90;;;;;;5015973;28;20097;-74
2023/12/10 03:51:34;;;;;;;17.55;2.45;;;8.20;99.90;;;;;;5015727;28;20030;-74
2023/12/10 03:54:00;;;;;;;15.43;2.00;;;8.30;99.90;;;;;;5015661;28;20385;-74
2023/12/10 03:56:26;;;;;;;31.55;1.67;;;8.20;99.90;;;;;;5016249;28;20026;-74
2023/12/10 03:58:51;;;;;;;23.33;2.28;;;8.20;99.90;;;;;;5014437;28;20048;-74
2023/12/10 04:01:17;;;;;;;19.88;1.58;;;8.20;99.90;;;;;;5015889;28;20057;-74
2023/12/10 04:03:43;;;;;;;19.42;2.97;;;8.20;99.90;;;;;;5015773;28;20038;-74
2023/12/10 04:06:08;;;;;;;20.25;1.80;;;8.20;99.90;;;;;;5013642;28;20030;-74
2023/12/10 04:08:34;;;;;;;15.95;2.03;;;8.20;99.90;;;;;;5015495;28;20034;-74
2023/12/10 04:10:59;;;;;;;30.92;2.97;;;8.20;99.90;;;;;;5015452;28;20076;-74
2023/12/10 04:13:25;;;;;;;20.63;3.05;;;8.20;99.90;;;;;;5015499;28;20068;-74
2023/12/10 04:15:50;;;;;;;25.95;2.78;;;8.20;99.90;;;;;;5014252;28;20010;-74
2023/12/10 04:18:16;;;;;;;19.13;2.25;;;8.30;99.90;;;;;;5015287;28;20021;-74
2023/12/10 04:20:42;;;;;;;19.85;1.73;;;8.30;99.90;;;;;;5015469;28;20449;-74
2023/12/10 04:23:08;;;;;;;17.88;1.17;;;8.30;99.90;;;;;;5015758;28;20049;-74
2023/12/10 04:25:34;;;;;;;29.42;1.92;;;8.30;99.90;;;;;;5014306;28;20022;-74
2023/12/10 04:27:59;;;;;;;12.93;1.45;;;8.30;99.90;;;;;;5014249;28;20037;-74
2023/12/10 04:30:26;;;;;;;22.23;1.52;;;8.30;99.90;;;;;;5015203;28;20021;-75
2023/12/10 04:32:53;;;;;;;30.90;2.80;;;8.30;99.90;;;;;;5013766;28;20080;-74
2023/12/10 04:35:19;;;;;;;21.63;2.35;;;8.50;99.90;;;;;;5013535;28;20058;-74
2023/12/10 04:37:44;;;;;;;15.10;0.35;;;8.50;99.90;;;;;;5014251;28;20022;-75
2023/12/10 04:40:13;;;;;;;17.73;2.40;;;8.50;99.90;;;;;;5013426;28;20045;-74
2023/12/10 04:42:38;;;;;;;18.65;1.13;;;8.50;99.90;;;;;;5015051;28;20037;-75
2023/12/10 04:45:06;;;;;;;23.80;1.92;;;8.50;99.90;;;;;;5015265;28;20026;-74
2023/12/10 04:47:32;;;;;;;21.83;2.47;;;8.50;99.90;;;;;;5014752;28;20069;-74
2023/12/10 04:49:58;;;;;;;12.63;1.45;;;8.50;99.90;;;;;;5014791;28;20033;-74
2023/12/10 04:52:23;;;;;;;21.38;0.73;;;8.60;99.90;;;;;;5014759;28;20033;-75
2023/12/10 04:54:49;;;;;;;17.70;2.22;;;8.70;99.90;;;;;;5012987;28;20014;-75
2023/12/10 04:57:15;;;;;;;20.15;1.10;;;8.80;99.90;;;;;;5014854;28;20037;-74
2023/12/10 04:59:40;;;;;;;20.90;0.93;;;8.90;99.90;;;;;;5015185;28;20026;-74
2023/12/10 05:02:06;;;;;;;16.65;1.25;;;8.90;99.90;;;;;;5013063;28;20030;-74
2023/12/10 05:04:31;;;;;;;15.13;1.65;;;9.00;99.90;;;;;;5014581;28;20026;-75
2023/12/10 05:06:57;;;;;;;19.60;1.80;;;;;;;;;;5014592;28;20018;-74
2023/12/10 05:09:23;;;;;;;17.05;2.10;;;9.00;99.90;;;;;;5014015;28;20026;-74
2023/12/10 05:11:49;;;;;;;11.07;0.93;;;;;;;;;;5014637;28;20481;-73
2023/12/10 05:14:14;;;;;;;12.60;1.42;;;9.10;99.90;;;;;;5013199;28;20034;-73
2023/12/10 05:16:40;;;;;;;19.35;1.23;;;9.10;99.90;;;;;;5013959;28;20029;-74
2023/12/10 05:19:05;;;;;;;12.35;1.75;;;9.20;99.90;;;;;;5014146;28;20022;-74
2023/12/10 05:21:33;;;;;;;22.77;1.70;;;9.20;99.90;;;;;;5014545;28;20093;-74
2023/12/10 05:23:58;;;;;;;15.13;2.05;;;9.20;99.90;;;;;;5013155;28;20125;-74
2023/12/10 05:26:24;;;;;;;15.27;1.98;;;9.30;99.90;;;;;;5012918;28;20080;-74
2023/12/10 05:28:50;;;;;;;17.75;0.40;;;9.30;99.90;;;;;;5014189;28;20034;-74
2023/12/10 05:31:15;;;;;;;18.17;0.82;;;9.30;99.90;;;;;;5014567;28;20477;-74
2023/12/10 05:33:41;;;;;;;16.00;0.98;;;9.30;99.90;;;;;;5014246;28;20029;-74
2023/12/10 05:36:07;;;;;;;9.02;0.50;;;9.30;99.90;;;;;;5014395;28;20022;-74
2023/12/10 05:38:33;;;;;;;15.07;1.10;;;9.40;99.90;;;;;;5012654;28;20018;-74
2023/12/10 05:40:59;;;;;;;13.00;1.30;;;;;;;;;;5012687;28;20080;-74
2023/12/10 05:43:24;;;;;;;20.10;2.33;;;9.30;99.90;;;;;;5012956;28;20088;-74
2023/12/10 05:45:50;;;;;;;21.48;0.80;;;9.30;99.90;;;;;;5015196;28;20022;-74
2023/12/10 05:48:16;;;;;;;11.18;1.35;;;9.30;99.90;;;;;;5014398;28;20030;-74
2023/12/10 05:50:41;;;;;;;14.35;1.35;;;9.30;99.90;;;;;;5012734;28;20080;-74
2023/12/10 05:53:07;;;;;;;21.90;1.20;;;9.30;99.90;;;;;;5013902;28;20128;-74
2023/12/10 05:55:32;;;;;;;15.13;1.25;;;9.30;99.90;;;;;;5013936;28;20022;-74
2023/12/10 05:57:58;;;;;;;11.73;1.30;;;9.30;99.90;;;;;;5012980;28;20037;-74
2023/12/10 06:00:23;;;;;;;20.50;1.20;;;9.30;99.90;;;;;;5013449;28;20022;-74
2023/12/10 06:02:49;;;;;;;11.57;0.63;;;9.30;99.90;;;;;;5014602;28;20057;-73
2023/12/10 06:05:14;;;;;;;15.20;1.08;;;9.20;99.90;;;;;;5012777;28;20064;-73
2023/12/10 06:07:40;;;;;;;30.33;2.38;;;9.20;99.90;;;;;;5013683;28;20092;-73
2023/12/10 06:10:07;;;;;;;6.88;0.80;;;9.20;99.90;;;;;;5013913;28;20389;-73
2023/12/10 06:12:32;;;;;;;15.73;0.77;;;9.20;99.90;;;;;;5012798;28;20366;-73
2023/12/10 06:14:58;;;;;;;17.42;2.60;;;9.20;99.90;;;;;;5013603;28;20064;-73
2023/12/10 06:17:23;;;;;;;17.55;1.02;;;9.20;99.90;;;;;;5013911;28;20029;-73
2023/12/10 06:19:49;;;;;;;18.10;2.33;;;9.20;99.90;;;;;;5013746;28;20034;-73
2023/12/10 06:22:14;;;;;;;12.77;1.85;;;9.10;99.90;;;;;;5013973;28;20026;-73
2023/12/10 06:24:40;;;;;;;11.38;1.63;;;9.20;99.90;;;;;;5013985;28;20057;-73
2023/12/10 06:27:06;;;;;;;23.75;3.65;;;9.20;99.90;;;;;;5014193;28;20057;-73
2023/12/10 06:29:31;;;;;;;18.83;1.63;;;9.20;99.90;;;;;;5016158;28;20022;-73
2023/12/10 06:31:57;;;;;;;21.02;1.08;;;9.20;99.90;;;;;;5017185;28;20022;-73
2023/12/10 06:34:22;;;;;;;20.10;3.15;;;9.20;99.90;;;;;;5017576;28;20057;-73
2023/12/10 06:36:48;;;;;;;15.35;1.75;;;9.10;99.90;;;;;;5017622;28;20050;-73
2023/12/10 06:39:13;;;;;;;17.20;1.60;;;9.20;99.90;;;;;;5017457;28;20030;-73
2023/12/10 06:41:39;;;;;;;19.95;1.02;;;9.20;99.90;;;;;;5017119;28;20499;-73
2023/12/10 06:44:09;;;;;;;13.65;1.17;;;9.10;99.90;;;;;;5017147;28;20026;-73
2023/12/10 06:46:34;;;;;;;14.68;1.42;;;9.20;99.90;;;;;;5017088;28;20066;-73
2023/12/10 06:49:00;;;;;;;16.70;0.85;;;9.30;99.90;;;;;;5016900;28;20097;-73
2023/12/10 06:51:26;;;;;;;11.57;0.95;;;9.80;99.90;;;;;;5017091;28;20080;-73
2023/12/10 06:53:51;;;;;;;19.10;1.67;;;9.30;99.90;;;;;;5017634;28;20014;-73
2023/12/10 06:56:17;;;;;;;14.45;1.05;;;9.40;99.90;;;;;;5017073;28;20025;-73
2023/12/10 06:58:42;;;;;;;27.10;2.35;;;9.30;99.90;;;;;;5015980;28;20486;-73
2023/12/10 07:01:08;;;;;;;10.80;1.40;;;9.30;99.90;;;;;;5017213;28;20014;-73
2023/12/10 07:03:33;;;;;;;13.90;1.20;;;9.30;99.90;;;;;;5015646;28;20054;-73
2023/12/10 07:06:03;;;;;;;9.93;0.77;;;9.40;99.90;;;;;;5016428;28;20033;-73
2023/12/10 07:08:29;;;;;;;11.82;1.58;;;9.40;99.90;;;;;;5016095;28;20393;-73
2023/12/10 07:10:54;;;;;;;17.45;1.85;;;9.40;99.90;;;;;;5015491;28;20018;-73
2023/12/10 07:13:20;;;;;;;11.30;1.35;;;9.40;99.90;;;;;;5016515;28;20054;-73
2023/12/10 07:15:46;;;;;;;17.80;1.55;;;9.40;99.90;;;;;;5016849;28;20478;-73
2023/12/10 07:18:11;;;;;;;32.13;1.77;;;9.40;99.90;;;;;;5016792;28;20083;-73
2023/12/10 07:20:37;;;;;;;17.95;1.42;;;9.40;99.90;;;;;;5015692;28;20036;-73
2023/12/10 07:23:02;;;;;;;16.48;1.50;;;9.40;99.90;;;;;;5016882;28;20092;-73
2023/12/10 07:25:28;;;;;;;21.02;3.22;;;9.40;99.90;;;;;;5016498;28;20052;-73
2023/12/10 07:27:53;;;;;;;10.05;0.57;;;9.40;99.90;;;;;;5015665;28;20033;-73
2023/12/10 07:30:19;;;;;;;20.40;2.88;;;9.40;99.90;;;;;;5016566;28;20370;-73
2023/12/10 07:32:44;;;;;;;18.45;2.05;;;9.40;99.90;;;;;;5015247;28;20018;-73
2023/12/10 07:35:10;;;;;;;13.00;0.38;;;9.40;99.90;;;;;;5016794;28;20050;-73
2023/12/10 07:37:39;;;;;;;23.40;2.15;;;9.40;99.90;;;;;;5016378;28;20408;-73
2023/12/10 07:40:05;;;;;;;18.98;2.10;;;9.50;99.90;;;;;;5015791;28;20476;-73
2023/12/10 07:42:30;;;;;;;15.98;0.52;;;9.40;99.90;;;;;;5015977;28;20072;-73
2023/12/10 07:44:56;;;;;;;12.50;0.80;;;9.40;99.90;;;;;;5016156;28;20058;-73
2023/12/10 07:47:22;;;;;;;13.80;1.20;;;9.30;99.90;;;;;;5017257;28;20025;-73
2023/12/10 07:49:47;;;;;;;16.33;1.30;;;9.40;99.90;;;;;;5016781;28;20052;-73
2023/12/10 07:52:13;;;;;;;15.70;1.60;;;9.30;99.90;;;;;;5016188;28;20061;-74
2023/12/10 07:54:39;;;;;;;26.02;1.40;;;9.30;99.90;;;;;;5014670;28;20386;-74
2023/12/10 07:57:05;;;;;;;12.27;1.30;;;9.30;99.90;;;;;;5016611;28;20037;-74
2023/12/10 07:59:30;;;;;;;23.85;1.20;;;9.30;99.90;;;;;;5015960;28;20030;-74
2023/12/10 08:01:56;;;;;;;12.18;1.15;;;9.30;99.90;;;;;;5016348;28;20050;-74
2023/12/10 08:04:21;;;;;;;20.70;1.10;;;9.30;99.90;;;;;;5016041;28;20057;-74
2023/12/10 08:06:47;;;;;;;20.92;2.33;;;9.30;99.90;;;;;;5014982;28;20022;-74
2023/12/10 08:09:12;;;;;;;13.60;0.70;;;10.10;99.90;;;;;;5014296;28;20030;-75
2023/12/10 08:11:38;;;;;;;13.60;1.40;;;9.30;99.90;;;;;;5014555;28;20017;-74
2023/12/10 08:14:04;;;;;;;17.88;2.08;;;10.20;99.90;;;;;;5016070;28;20030;-77
2023/12/10 08:16:29;;;;;;;14.52;0.75;;;9.30;99.90;;;;;;5014020;28;20022;-76
2023/12/10 08:18:57;;;;;;;14.20;1.50;;;9.30;99.90;;;;;;5015718;28;20014;-77
2023/12/10 08:21:23;;;;;;;11.35;0.88;;;9.30;99.90;;;;;;5016012;28;20022;-77
2023/12/10 08:23:48;;;;;;;27.05;2.42;;;9.30;99.90;;;;;;5015903;28;20109;-77
2023/12/10 08:26:14;;;;;;;17.52;1.23;;;9.40;99.90;;;;;;5014391;28;20057;-77
2023/12/10 08:28:40;;;;;;;19.58;2.08;;;9.40;99.90;;;;;;5014207;28;20026;-77
2023/12/10 08:31:06;;;;;;;13.25;0.43;;;9.30;99.90;;;;;;5014678;28;20018;-77
2023/12/10 08:33:32;;;;;;;18.10;1.88;;;9.30;99.90;;;;;;5015446;28;20022;-77
2023/12/10 08:35:58;;;;;;;20.05;0.82;;;9.30;99.90;;;;;;5014596;28;20075;-77
2023/12/10 08:38:23;;;;;;;15.55;1.70;;;9.30;99.90;;;;;;5013789;28;20033;-77
2023/12/10 08:40:49;;;;;;;16.98;1.73;;;9.30;99.90;;;;;;5015588;28;20024;-77
2023/12/10 08:43:15;;;;;;;10.27;0.80;;;9.30;99.90;;;;;;5015579;28;20018;-77
2023/12/10 08:45:40;;;;;;;9.20;1.08;;;9.30;99.90;;;;;;5014457;28;20026;-77
2023/12/10 08:48:06;;;;;;;13.60;1.08;;;9.20;99.90;;;;;;5014547;28;20022;-77
2023/12/10 08:50:31;;;;;;;11.73;0.73;;;9.30;99.90;;;;;;5015010;28;20028;-77
2023/12/10 08:52:57;;;;;;;11.32;0.88;;;9.30;99.90;;;;;;5012797;28;20367;-77
2023/12/10 08:55:22;;;;;;;13.70;0.68;;;9.30;99.90;;;;;;5015738;28;20064;-77
2023/12/10 08:57:48;;;;;;;17.30;1.27;;;9.30;99.90;;;;;;5015546;28;20057;-77
2023/12/10 09:00:14;;;;;;;5.32;0.82;;;9.30;99.90;;;;;;5014942;28;20397;-77
2023/12/10 09:02:40;;;;;;;10.68;0.68;;;9.30;99.90;;;;;;5015531;28;20124;-77
2023/12/10 09:05:06;;;;;;;11.68;0.85;;;9.40;99.90;;;;;;5014308;28;20084;-77
2023/12/10 09:07:31;;;;;;;8.57;0.50;;;9.40;99.90;;;;;;5014875;28;20030;-77
2023/12/10 09:09:59;;;;;;;15.30;1.98;;;9.40;99.90;;;;;;5013828;28;20022;-77
2023/12/10 09:12:27;;;;;;;13.95;0.57;;;9.40;99.90;;;;;;5015442;28;20551;-77
2023/12/10 09:14:53;;;;;;;13.45;1.27;;;9.40;99.90;;;;;;5015049;28;20018;-77
2023/12/10 09:17:19;;;;;;;11.90;0.88;;;9.40;99.90;;;;;;5016346;28;20116;-78
2023/12/10 09:19:44;;;;;;;10.73;0.75;;;11.10;99.90;;;;;;5014102;28;20026;-78
2023/12/10 09:22:10;;;;;;;9.98;0.73;;;9.50;99.90;;;;;;5013231;28;20036;-78
2023/12/10 09:24:36;;;;;;;16.48;0.82;;;9.40;99.90;;;;;;5014643;28;20025;-78
2023/12/10 09:27:01;;;;;;;12.70;1.15;;;9.50;99.90;;;;;;5015052;28;20440;-78
2023/12/10 09:29:27;;;;;;;21.75;2.40;;;9.50;99.90;;;;;;5013399;28;20114;-78
2023/12/10 09:31:53;;;;;;;15.07;1.20;;;9.50;99.90;;;;;;5014737;28;20017;-77
2023/12/10 09:34:18;;;;;;;16.58;0.70;;;10.20;99.90;;;;;;5013715;28;20026;-77
2023/12/10 09:36:44;;;;;;;11.65;0.25;;;9.70;99.90;;;;;;5013172;28;20053;-78
2023/12/10 09:39:09;;;;;;;13.57;0.40;;;9.60;99.90;;;;;;5015240;28;20034;-78
2023/12/10 09:41:35;;;;;;;9.35;0.82;;;9.60;99.90;;;;;;5014751;28;20029;-77
2023/12/10 09:44:00;;;;;;;14.57;1.25;;;9.60;99.90;;;;;;5014824;28;20026;-77
2023/12/10 09:46:29;;;;;;;12.30;1.05;;;9.70;99.90;;;;;;5013704;28;20500;-78
2023/12/10 09:48:56;;;;;;;8.93;1.05;;;9.80;99.90;;;;;;5014751;28;20022;-78
2023/12/10 09:51:21;;;;;;;10.60;1.23;;;10.70;99.90;;;;;;5013239;28;20058;-77
2023/12/10 09:53:48;;;;;;;11.20;1.00;;;9.80;99.90;;;;;;5015145;28;20370;-77
2023/12/10 09:56:13;;;;;;;12.88;0.77;;;9.80;99.90;;;;;;5014616;28;20050;-78
2023/12/10 09:58:39;;;;;;;14.00;0.90;;;9.80;99.90;;;;;;5012897;28;20418;-78
2023/12/10 10:01:07;;;;;;;11.63;1.33;;;9.90;99.90;;;;;;5014493;28;20473;-78
2023/12/10 10:03:36;;;;;;;18.80;0.88;;;9.90;99.90;;;;;;5016083;28;20022;-78
2023/12/10 10:06:02;;;;;;;10.68;0.57;;;10.00;99.90;;;;;;5018206;28;20088;-78
2023/12/10 10:08:28;;;;;;;10.20;0.17;;;10.00;99.90;;;;;;5018786;28;20037;-78
2023/12/10 10:10:54;;;;;;;6.85;0.55;;;10.00;99.90;;;;;;5016975;28;20022;-77
2023/12/10 10:13:19;;;;;;;14.15;0.77;;;10.00;99.90;;;;;;5018681;28;20045;-77
2023/12/10 10:15:45;;;;;;;18.77;1.65;;;10.00;99.90;;;;;;5016648;28;20482;-78
2023/12/10 10:18:14;;;;;;;15.48;1.27;;;9.90;99.90;;;;;;5018928;28;20018;-78
2023/12/10 10:20:41;;;;;;;6.20;0.77;;;10.00;99.90;;;;;;5018077;28;20022;-78
2023/12/10 10:23:08;;;;;;;16.95;2.00;;;10.00;99.90;;;;;;5017214;28;20029;-78
2023/12/10 10:25:34;;;;;;;4.18;0.17;;;10.00;99.90;;;;;;5017574;28;20075;-78
2023/12/10 10:27:59;;;;;;;10.27;0.80;;;10.00;99.90;;;;;;5018258;28;20100;-78
2023/12/10 10:30:25;;;;;;;16.42;0.60;;;10.00;99.90;;;;;;5016691;28;20025;-77
2023/12/10 10:32:54;;;;;;;16.80;1.33;;;10.10;99.90;;;;;;5017313;28;20029;-77
2023/12/10 10:35:20;;;;;;;14.63;2.13;;;10.00;99.90;;;;;;5017615;28;20032;-78
2023/12/10 10:37:47;;;;;;;12.15;0.25;;;10.10;99.90;;;;;;5016036;28;20018;-78
2023/12/10 10:40:13;;;;;;;17.52;0.77;;;10.10;99.90;;;;;;5017655;28;20034;-78
2023/12/10 10:42:38;;;;;;;20.70;1.33;;;10.10;99.90;;;;;;5017518;28;20033;-78
2023/12/10 10:45:04;;;;;;;11.65;1.67;;;10.10;99.90;;;;;;5017505;28;20080;-77
2023/12/10 10:47:32;;;;;;;10.98;0.90;;;10.10;99.90;;;;;;5016805;28;20018;-77
2023/12/10 10:50:00;;;;;;;11.35;0.90;;;10.10;99.90;;;;;;5017220;28;20037;-77
2023/12/10 10:52:29;;;;;;;16.35;1.45;;;10.10;99.90;;;;;;5017360;28;20033;-78
2023/12/10 10:54:55;;;;;;;;;;;10.10;99.90;;;;;;5016632;28;20022;-77
2023/12/10 10:57:31;;;;;;;10.52;1.13;;;10.10;99.90;;;;;;5017351;28;20019;-78
2023/12/10 10:59:57;;;;;;;17.05;1.10;;;10.10;99.90;;;;;;5015964;28;20048;-77
2023/12/10 11:02:23;;;;;;;13.70;0.80;;;10.20;99.90;;;;;;5017816;28;20105;-77
2023/12/10 11:04:50;;;;;;;11.88;0.35;;;10.10;99.90;;;;;;5017845;28;20061;-78
2023/12/10 11:07:20;;;;;;;10.60;1.17;;;10.10;99.90;;;;;;5016485;28;20541;-77
2023/12/10 11:09:56;;;;;;;15.43;1.10;;;10.10;99.90;;;;;;5017540;28;20022;-77
2023/12/10 11:12:39;;;;;;;15.18;0.65;;;10.60;99.90;;;;;;5018197;28;20030;-78
2023/12/10 11:15:21;;;;;;;9.77;0.50;;;10.10;99.90;;;;;;5016187;28;20080;-77
2023/12/10 11:17:58;;;;;;;6.25;0.30;;;10.10;99.90;;;;;;5017128;28;20026;-78
2023/12/10 11:20:40;;;;;;;11.27;0.80;;;10.10;99.90;;;;;;5015701;28;20116;-78
2023/12/10 11:23:14;;;;;;;16.08;1.55;;;10.20;99.90;;;;;;5015819;28;20481;-78
2023/12/10 11:25:41;;;;;;;5.43;0.20;;;10.30;99.90;;;;;;5017435;28;20026;-77
2023/12/10 11:28:11;;;;;;;7.95;0.43;;;10.30;99.90;;;;;;5016437;28;20044;-78
2023/12/10 11:30:39;;;;;;;10.27;1.83;;;10.30;99.90;;;;;;5015578;28;20385;-77
2023/12/10 11:33:05;;;;;;;15.43;1.10;;;10.40;99.90;;;;;;5016927;28;20153;-78
2023/12/10 11:35:31;;;;;;;7.18;0.65;;;10.50;99.90;;;;;;5015454;28;20470;-77
2023/12/10 11:37:56;;;;;;;17.08;1.42;;;10.60;99.90;;;;;;5015393;28;20028;-78
2023/12/10 11:40:22;;;;;;;11.60;0.80;;;10.60;99.90;;;;;;5016663;28;20026;-78
2023/12/10 11:42:48;;;;;;;8.45;0.30;;;10.60;99.90;;;;;;5017457;28;20026;-78
2023/12/10 11:45:14;;;;;;;9.00;0.68;;;10.90;99.90;;;;;;5017118;28;20026;-78
2023/12/10 11:47:44;;;;;;;8.73;0.75;;;10.60;99.90;;;;;;5017025;28;20030;-77
2023/12/10 11:50:11;;;;;;;9.95;0.60;;;10.60;99.90;;;;;;5016205;28;20026;-78
2023/12/10 11:52:37;;;;;;;8.18;1.05;;;10.60;99.90;;;;;;5015140;28;20037;-78
2023/12/10 11:55:05;;;;;;;7.93;0.63;;;10.60;99.90;;;;;;5015107;28;20053;-78
2023/12/10 11:57:31;;;;;;;10.93;0.30;;;10.70;99.90;;;;;;5015357;28;20022;-78
2023/12/10 11:59:56;;;;;;;8.35;0.10;;;10.80;99.90;;;;;;5016717;28;20048;-77
2023/12/10 12:02:23;;;;;;;15.40;1.15;;;10.80;99.90;;;;;;5015874;28;20485;-78
2023/12/10 12:04:52;;;;;;;7.93;0.52;;;10.90;99.90;;;;;;5015161;28;20030;-78
2023/12/10 12:07:28;;;;;;;7.95;0.47;;;10.90;99.90;;;;;;5016181;28;20030;-77
2023/12/10 12:09:54;;;;;;;10.02;0.75;;;10.90;99.90;;;;;;5014875;28;20436;-77
2023/12/10 12:12:21;;;;;;;14.30;0.90;;;10.80;99.90;;;;;;5015809;28;20025;-77
2023/12/10 12:14:47;;;;;;;15.90;0.68;;;10.80;99.90;;;;;;5016172;28;20397;-78
2023/12/10 12:17:15;;;;;;;10.55;0.60;;;10.60;99.90;;;;;;5015840;28;20029;-77
2023/12/10 12:19:42;;;;;;;20.20;0.60;;;10.80;99.90;;;;;;5014647;28;20033;-77
2023/12/10 12:22:08;;;;;;;11.98;0.25;;;10.60;99.90;;;;;;5016139;28;20032;-78
2023/12/10 12:24:34;;;;;;;12.35;1.08;;;11.00;99.90;;;;;;5016294;28;20030;-78
2023/12/10 12:26:59;;;;;;;10.73;0.93;;;10.50;99.90;;;;;;5016140;28;20018;-77
2023/12/10 12:29:25;;;;;;;13.10;0.47;;;10.50;99.90;;;;;;5014416;28;20022;-77
2023/12/10 12:31:51;;;;;;;11.18;0.77;;;10.50;99.90;;;;;;5016588;28;20488;-77
2023/12/10 12:34:16;;;;;;;11.10;0.75;;;10.40;99.90;;;;;;5014218;28;20104;-77
2023/12/10 12:36:43;;;;;;;9.75;0.68;;;10.40;99.90;;;;;;5012808;28;20025;-77
2023/12/10 12:39:08;;;;;;;15.73;1.35;;;10.40;99.90;;;;;;5007201;28;20033;-77
2023/12/10 12:41:34;;;;;;;9.57;1.48;;;10.40;99.90;;;;;;5013189;28;20025;-77
2023/12/10 12:43:59;;;;;;;10.57;1.20;;;10.40;99.90;;;;;;5012572;28;20105;-77